Time;durP1;ratioP1;P1;durP2;ratioP2;P2;SDS_P1;SDS_P2;PMS_P1;PMS_P2;Temp;Humidity;BMP_temperature;BMP_pressure;BME280_temperature;BME280_humidity;BME280_pressure;Samples;Min_cycle;Max_cycle;Signal;HPM_P1;HPM_P2
2021/12/11 00:02:09;;;;;;;5.32;0.70;;;;;;;;;;5009629;28;20037;-73
2021/12/11 00:04:37;;;;;;;0.82;0.60;;;;;;;;;;5004461;28;20948;-73
2021/12/11 00:07:08;;;;;;;2.80;0.63;;;;;;;;;;5025794;28;20040;-73
2021/12/11 00:09:41;;;;;;;3.67;0.55;;;;;;;;;;5026663;28;20133;-73
2021/12/11 00:12:09;;;;;;;;;;;;;;;;;;5012118;28;20100;-73
2021/12/11 00:14:39;;;;;;;1.05;0.52;;;;;;;;;;5040205;28;20073;-73
2021/12/11 00:17:04;;;;;;;2.58;0.70;;;;;;;;;;5023484;28;20498;-73
2021/12/11 00:19:32;;;;;;;2.67;0.73;;;;;;;;;;5015853;28;20096;-73
2021/12/11 00:22:14;;;;;;;2.55;0.55;;;;;;;;;;5025263;28;20033;-73
2021/12/11 00:24:41;;;;;;;2.83;0.63;;;;;;;;;;5024894;28;20061;-73
2021/12/11 00:27:11;;;;;;;3.03;0.55;;;;;;;;;;5024100;28;20033;-73
2021/12/11 00:29:38;;;;;;;1.85;0.50;;;;;;;;;;5027275;28;20040;-73
2021/12/11 00:32:10;;;;;;;3.45;0.55;;;;;;;;;;5031703;28;20025;-73
2021/12/11 00:34:40;;;;;;;7.78;0.60;;;;;;;;;;5019994;28;20041;-73
2021/12/11 00:37:08;;;;;;;1.30;0.40;;;;;;;;;;5012692;28;20037;-73
2021/12/11 00:39:42;;;;;;;0.50;0.38;;;;;;;;;;5025827;28;20048;-73
2021/12/11 00:42:09;;;;;;;1.20;0.68;;;;;;;;;;5027885;28;20030;-73
2021/12/11 00:44:45;;;;;;;3.65;0.50;;;;;;;;;;5027413;28;20041;-73
2021/12/11 00:47:16;;;;;;;5.57;0.68;;;;;;;;;;5026258;28;20036;-73
2021/12/11 00:50:09;;;;;;;3.20;0.68;;;;;;;;;;5024257;28;20085;-73
2021/12/11 00:52:49;;;;;;;0.90;0.25;;;;;;;;;;5025638;28;20038;-73
2021/12/11 00:55:23;;;;;;;3.35;0.47;;;;;;;;;;5009185;28;20038;-73
2021/12/11 00:58:01;;;;;;;2.50;0.45;;;;;;;;;;5024059;28;20080;-73
2021/12/11 01:00:26;;;;;;;2.75;0.52;;;;;;;;;;5025469;28;20048;-73
2021/12/11 01:02:54;;;;;;;2.35;0.40;;;;;;;;;;5025676;28;20045;-73
2021/12/11 01:05:22;;;;;;;2.67;0.70;;;;;;;;;;5025668;28;20497;-73
2021/12/11 01:07:49;;;;;;;2.83;0.68;;;;;;;;;;5025509;28;20022;-73
2021/12/11 01:10:26;;;;;;;2.80;0.75;;;;;;;;;;5028078;28;20032;-73
2021/12/11 01:13:01;;;;;;;0.75;0.57;;;;;;;;;;5024970;28;20046;-73
2021/12/11 01:15:34;;;;;;;0.70;0.60;;;;;;;;;;5030664;28;20060;-73
2021/12/11 01:18:22;;;;;;;0.77;0.47;;;;;;;;;;5006766;28;20033;-73
2021/12/11 01:21:02;;;;;;;2.30;0.75;;;;;;;;;;5022633;28;20036;-73
2021/12/11 01:26:07;;;;;;;1.55;0.80;;;;;;;;;;5025829;28;20029;-73
2021/12/11 01:28:34;;;;;;;2.63;0.90;;;;;;;;;;5030747;28;20039;-73
2021/12/11 01:31:02;;;;;;;3.58;0.77;;;;;;;;;;5026084;28;20037;-73
2021/12/11 01:33:28;;;;;;;1.48;0.82;;;;;;;;;;5025249;28;20037;-73
2021/12/11 01:35:53;;;;;;;1.73;0.80;;;;;;;;;;5020584;28;20095;-73
2021/12/11 01:38:26;;;;;;;4.55;1.00;;;;;;;;;;5023733;28;20660;-73
2021/12/11 01:40:57;;;;;;;2.58;0.80;;;;;;;;;;5008757;28;20057;-73
2021/12/11 01:43:28;;;;;;;5.32;1.10;;;;;;;;;;5023677;28;20095;-73
2021/12/11 01:45:56;;;;;;;3.50;0.88;;;;;;;;;;5032853;28;20042;-73
2021/12/11 01:48:34;;;;;;;4.65;1.13;;;;;;;;;;5026743;28;20050;-73
2021/12/11 01:51:11;;;;;;;2.40;0.88;;;;;;;;;;5002013;28;20065;-73
2021/12/11 01:53:43;;;;;;;1.70;0.90;;;;;;;;;;5025950;28;20033;-72
2021/12/11 01:56:15;;;;;;;3.50;1.00;;;;;;;;;;5037162;28;20034;-73
2021/12/11 01:58:57;;;;;;;2.58;1.05;;;;;;;;;;5030053;28;20446;-73
2021/12/11 02:01:34;;;;;;;5.45;1.55;;;;;;;;;;5027280;28;20426;-73
2021/12/11 02:04:02;;;;;;;7.43;1.63;;;;;;;;;;5013197;28;20509;-73
2021/12/11 02:06:30;;;;;;;6.55;2.03;;;;;;;;;;5036925;28;20053;-73
2021/12/11 02:08:56;;;;;;;9.05;2.10;;;;;;;;;;5027164;28;20060;-73
2021/12/11 02:11:25;;;;;;;14.82;4.25;;;;;;;;;;5030050;28;20553;-73
2021/12/11 02:14:01;;;;;;;13.23;3.42;;;;;;;;;;5025279;28;20032;-73
2021/12/11 02:16:29;;;;;;;17.02;3.88;;;;;;;;;;5029963;28;20202;-73
2021/12/11 02:19:09;;;;;;;21.70;4.55;;;;;;;;;;5029476;28;20529;-73
2021/12/11 02:21:46;;;;;;;26.38;5.07;;;;;;;;;;5011122;28;20329;-73
2021/12/11 02:24:16;;;;;;;23.48;3.75;;;;;;;;;;5021380;28;20042;-73
2021/12/11 02:26:42;;;;;;;17.67;3.70;;;;;;;;;;5004329;28;20041;-73
2021/12/11 02:29:19;;;;;;;19.23;4.00;;;;;;;;;;5022455;28;20045;-73
2021/12/11 02:31:56;;;;;;;14.55;3.55;;;;;;;;;;5023280;28;20554;-73
2021/12/11 02:34:24;;;;;;;20.55;5.00;;;;;;;;;;5011801;28;20038;-73
2021/12/11 02:36:59;;;;;;;15.80;3.60;;;;;;;;;;5018708;28;20053;-73
2021/12/11 02:39:43;;;;;;;18.88;3.90;;;;;;;;;;5025576;28;20037;-72
2021/12/11 02:42:30;;;;;;;20.20;3.97;;;;;;;;;;5028042;28;20069;-73
2021/12/11 02:45:18;;;;;;;15.70;3.95;;;;;;;;;;5021261;28;20060;-73
2021/12/11 02:47:51;;;;;;;26.27;4.50;;;;;;;;;;5012452;28;20040;-73
2021/12/11 02:50:30;;;;;;;24.85;4.68;;;;;;;;;;5011718;28;20420;-73
2021/12/11 02:53:10;;;;;;;24.58;4.40;;;;;;;;;;5007930;28;20092;-73
2021/12/11 02:55:43;;;;;;;17.27;3.38;;;;;;;;;;5007782;28;20439;-73
2021/12/11 02:58:11;;;;;;;14.15;3.85;;;;;;;;;;5001643;28;20044;-72
2021/12/11 03:00:47;;;;;;;21.90;3.40;;;;;;;;;;5010033;28;20038;-72
2021/12/11 03:03:15;;;;;;;20.48;3.35;;;;;;;;;;5009583;28;20048;-73
2021/12/11 03:05:56;;;;;;;14.57;3.72;;;;;;;;;;4992481;28;20042;-73
2021/12/11 03:08:22;;;;;;;13.88;3.95;;;;;;;;;;5010630;28;20103;-73
2021/12/11 03:10:52;;;;;;;20.38;3.83;;;;;;;;;;5010265;28;20088;-73
2021/12/11 03:13:18;;;;;;;19.27;4.35;;;;;;;;;;5008918;28;20038;-73
2021/12/11 03:15:44;;;;;;;23.73;4.05;;;;;;;;;;5011622;28;20040;-73
2021/12/11 03:18:13;;;;;;;25.63;4.88;;;;;;;;;;5007899;28;20042;-72
2021/12/11 03:20:40;;;;;;;26.45;4.40;;;;;;;;;;4985250;28;20038;-72
2021/12/11 03:23:07;;;;;;;13.25;4.30;;;;;;;;;;5022605;28;20523;-72
2021/12/11 03:25:34;;;;;;;22.38;5.13;;;;;;;;;;4992534;28;20041;-72
2021/12/11 03:28:01;;;;;;;25.55;3.70;;;;;;;;;;5007807;28;20042;-72
2021/12/11 03:30:33;;;;;;;20.20;4.22;;;;;;;;;;5009032;28;20112;-72
2021/12/11 03:33:04;;;;;;;23.48;4.88;;;;;;;;;;5008704;28;20423;-72
2021/12/11 03:35:30;;;;;;;21.15;5.07;;;;;;;;;;5005953;28;20029;-72
2021/12/11 03:37:56;;;;;;;22.55;4.65;;;;;;;;;;5011635;28;20485;-72
2021/12/11 03:40:22;;;;;;;19.30;4.47;;;;;;;;;;5007984;28;20057;-72
2021/12/11 03:42:50;;;;;;;20.63;4.90;;;;;;;;;;5005984;28;20541;-72
2021/12/11 03:45:25;;;;;;;23.13;5.13;;;;;;;;;;4991114;28;20053;-72
2021/12/11 03:47:57;;;;;;;24.20;6.80;;;;;;;;;;4988526;28;20624;-72
2021/12/11 03:50:23;;;;;;;22.65;6.15;;;;;;;;;;5016190;28;20045;-72
2021/12/11 03:52:51;;;;;;;23.50;7.60;;;;;;;;;;5009591;28;20091;-72
2021/12/11 03:55:23;;;;;;;15.23;6.07;;;;;;;;;;5004757;28;20117;-72
2021/12/11 03:57:55;;;;;;;23.77;6.87;;;;;;;;;;5007713;28;20140;-72
2021/12/11 04:00:22;;;;;;;21.83;5.63;;;;;;;;;;5012912;28;20127;-72
2021/12/11 04:02:49;;;;;;;25.58;6.35;;;;;;;;;;5008551;28;20045;-72
2021/12/11 04:05:15;;;;;;;19.77;5.95;;;;;;;;;;5008032;28;20080;-72
2021/12/11 04:07:47;;;;;;;24.45;6.13;;;;;;;;;;4990759;28;20061;-72
2021/12/11 04:10:16;;;;;;;20.70;4.90;;;;;;;;;;5008038;28;20033;-72
2021/12/11 04:12:43;;;;;;;21.75;5.38;;;;;;;;;;5009714;28;20049;-72
2021/12/11 04:15:09;;;;;;;20.85;5.15;;;;;;;;;;5004572;28;20064;-72
2021/12/11 04:17:36;;;;;;;25.95;5.75;;;;;;;;;;5005107;28;20045;-72
2021/12/11 04:20:07;;;;;;;21.48;5.30;;;;;;;;;;5014411;28;20054;-72
2021/12/11 04:22:32;;;;;;;15.63;4.10;;;;;;;;;;5007816;28;20037;-72
2021/12/11 04:24:58;;;;;;;20.95;5.30;;;;;;;;;;5008959;28;20038;-72
2021/12/11 04:27:27;;;;;;;26.55;6.07;;;;;;;;;;5008178;28;20511;-72
2021/12/11 04:29:54;;;;;;;20.02;6.70;;;;;;;;;;5007639;28;20038;-72
2021/12/11 04:32:22;;;;;;;19.90;5.65;;;;;;;;;;5014890;28;20049;-72
2021/12/11 04:34:49;;;;;;;17.13;5.60;;;;;;;;;;5005089;28;20064;-72
2021/12/11 04:37:19;;;;;;;14.50;4.60;;;;;;;;;;4994164;28;20038;-72
2021/12/11 04:39:49;;;;;;;37.17;8.98;;;;;;;;;;5008361;28;20038;-72
2021/12/11 04:42:40;;;;;;;18.88;5.53;;;;;;;;;;5007734;28;20087;-72
2021/12/11 04:45:07;;;;;;;20.65;5.10;;;;;;;;;;4995317;28;20042;-72
2021/12/11 04:47:42;;;;;;;14.93;5.10;;;;;;;;;;5008036;28;20526;-72
2021/12/11 04:50:57;;;;;;;13.50;5.40;;;;;;;;;;5009889;28;20046;-72
2021/12/11 04:56:44;;;;;;;25.98;7.50;;;;;;;;;;5008032;28;20037;-72
2021/12/11 05:09:41;;;;;;;21.35;5.28;;;;;;;;;;5008717;28;20535;-72
2021/12/11 05:12:28;;;;;;;14.93;4.35;;;;;;;;;;5005987;28;20057;-72
2021/12/11 05:14:53;;;;;;;19.60;4.63;;;;;;;;;;5011567;28;20449;-72
2021/12/11 05:17:21;;;;;;;17.52;3.63;;;;;;;;;;5008481;28;20038;-72
2021/12/11 05:19:47;;;;;;;11.95;3.60;;;;;;;;;;5011098;28;20056;-72
2021/12/11 05:22:15;;;;;;;19.95;3.75;;;;;;;;;;5004594;28;20593;-72
2021/12/11 05:24:45;;;;;;;21.00;4.35;;;;;;;;;;4989894;28;20088;-72
2021/12/11 05:27:10;;;;;;;14.95;3.05;;;;;;;;;;5012352;28;20084;-72
2021/12/11 05:29:37;;;;;;;15.38;3.50;;;;;;;;;;5009993;28;20073;-72
2021/12/11 05:32:07;;;;;;;22.48;3.97;;;;;;;;;;5006087;28;20021;-72
2021/12/11 05:34:32;;;;;;;16.48;3.67;;;;;;;;;;5007089;28;20034;-72
2021/12/11 05:36:58;;;;;;;15.50;5.45;;;;;;;;;;4995892;28;20136;-72
2021/12/11 05:39:23;;;;;;;14.88;4.13;;;;;;;;;;5006060;28;20124;-72
2021/12/11 05:41:50;;;;;;;13.75;3.22;;;;;;;;;;5008354;28;20030;-72
2021/12/11 05:44:18;;;;;;;15.10;3.47;;;;;;;;;;5007283;28;20510;-72
2021/12/11 05:46:44;;;;;;;15.90;3.80;;;;;;;;;;5006120;28;20463;-72
2021/12/11 05:49:10;;;;;;;23.77;4.25;;;;;;;;;;4997577;28;20072;-72
2021/12/11 05:51:39;;;;;;;15.10;3.30;;;;;;;;;;5026539;28;20523;-72
2021/12/11 05:54:08;;;;;;;16.98;3.65;;;;;;;;;;5025800;28;20036;-72
2021/12/11 05:56:36;;;;;;;16.80;3.60;;;;;;;;;;5026841;28;20040;-72
2021/12/11 05:59:04;;;;;;;19.00;3.92;;;;;;;;;;5008589;28;20108;-72
2021/12/11 06:01:35;;;;;;;14.07;3.20;;;;;;;;;;5026157;28;20036;-72
2021/12/11 06:04:10;;;;;;;14.43;4.03;;;;;;;;;;5026539;28;20041;-72
2021/12/11 06:06:37;;;;;;;13.80;3.67;;;;;;;;;;5026140;28;20030;-72
2021/12/11 06:09:06;;;;;;;12.90;3.33;;;;;;;;;;5025815;28;20037;-72
2021/12/11 06:11:32;;;;;;;24.55;4.80;;;;;;;;;;5027480;28;20044;-72
2021/12/11 06:13:58;;;;;;;14.88;4.25;;;;;;;;;;5026128;28;20053;-71
2021/12/11 06:16:24;;;;;;;15.57;4.65;;;;;;;;;;5029259;28;20624;-71
2021/12/11 06:18:50;;;;;;;19.08;4.38;;;;;;;;;;5028051;28;20109;-72
2021/12/11 06:21:15;;;;;;;17.75;4.13;;;;;;;;;;5007698;28;20045;-72
2021/12/11 06:23:41;;;;;;;19.80;4.40;;;;;;;;;;5020256;28;20034;-72
2021/12/11 06:26:07;;;;;;;17.40;4.38;;;;;;;;;;5028332;28;20398;-72
2021/12/11 06:28:33;;;;;;;12.63;3.50;;;;;;;;;;5008890;28;20042;-72
2021/12/11 06:30:59;;;;;;;14.02;3.65;;;;;;;;;;5021091;28;20120;-72
2021/12/11 06:33:27;;;;;;;19.67;3.78;;;;;;;;;;5027487;28;20171;-72
2021/12/11 06:35:57;;;;;;;14.07;3.33;;;;;;;;;;5018664;28;20033;-72
2021/12/11 06:38:27;;;;;;;22.35;4.72;;;;;;;;;;5016936;28;20037;-72
2021/12/11 06:40:55;;;;;;;14.93;4.10;;;;;;;;;;5021416;28;20044;-72
2021/12/11 06:43:20;;;;;;;16.15;3.88;;;;;;;;;;5019646;28;20541;-72
2021/12/11 06:45:46;;;;;;;22.83;5.10;;;;;;;;;;5029598;28;20033;-72
2021/12/11 06:48:13;;;;;;;16.92;4.45;;;;;;;;;;5029188;28;20037;-72
2021/12/11 06:50:39;;;;;;;22.63;5.82;;;;;;;;;;5018919;28;20045;-71
2021/12/11 06:53:10;;;;;;;30.65;5.50;;;;;;;;;;5010776;28;20060;-72
2021/12/11 06:55:36;;;;;;;18.42;5.57;;;;;;;;;;5007318;28;20044;-72
2021/12/11 06:58:01;;;;;;;24.38;5.25;;;;;;;;;;5008618;28;20041;-72
2021/12/11 07:00:28;;;;;;;26.90;5.45;;;;;;;;;;5012718;28;20038;-72
2021/12/11 07:02:54;;;;;;;20.52;5.18;;;;;;;;;;5009050;28;20033;-72
2021/12/11 07:05:19;;;;;;;29.92;5.70;;;;;;;;;;5014125;28;20037;-72
2021/12/11 07:07:46;;;;;;;16.35;4.85;;;;;;;;;;5015907;28;20403;-72
2021/12/11 07:10:14;;;;;;;18.45;4.65;;;;;;;;;;5004339;28;20045;-72
2021/12/11 07:12:40;;;;;;;21.75;4.30;;;;;;;;;;4999735;28;20049;-72
2021/12/11 07:15:09;;;;;;;17.73;4.95;;;;;;;;;;5008969;28;20045;-72
2021/12/11 07:17:35;;;;;;;20.25;4.50;;;;;;;;;;5020339;28;20129;-72
2021/12/11 07:20:04;;;;;;;26.98;7.00;;;;;;;;;;5017434;28;20160;-72
2021/12/11 07:22:29;;;;;;;16.67;5.50;;;;;;;;;;5005452;28;20542;-72
2021/12/11 07:25:05;;;;;;;15.10;4.47;;;;;;;;;;4992092;28;20041;-72
2021/12/11 07:27:30;;;;;;;19.35;5.05;;;;;;;;;;5006517;28;20045;-71
2021/12/11 07:29:56;;;;;;;33.13;5.63;;;;;;;;;;5009332;28;20038;-72
2021/12/11 07:32:21;;;;;;;17.13;4.78;;;;;;;;;;5012524;28;20451;-71
2021/12/11 07:34:47;;;;;;;14.98;5.57;;;;;;;;;;5007856;28;20026;-72
2021/12/11 07:37:13;;;;;;;21.38;4.93;;;;;;;;;;5009176;28;20038;-71
2021/12/11 07:39:38;;;;;;;11.65;4.13;;;;;;;;;;5004438;28;20038;-73
2021/12/11 07:42:05;;;;;;;17.35;5.35;;;;;;;;;;5003216;28;20033;-72
2021/12/11 07:44:30;;;;;;;23.05;5.18;;;;;;;;;;5011713;28;20051;-73
2021/12/11 07:46:58;;;;;;;18.27;4.88;;;;;;;;;;5009646;28;20033;-72
2021/12/11 07:49:24;;;;;;;23.15;5.60;;;;;;;;;;5005354;28;20610;-73
2021/12/11 07:51:50;;;;;;;26.02;4.90;;;;;;;;;;5006356;28;20121;-73
2021/12/11 07:54:17;;;;;;;22.05;5.70;;;;;;;;;;5005581;28;20062;-73
2021/12/11 07:56:43;;;;;;;21.65;4.97;;;;;;;;;;4990052;28;20037;-73
2021/12/11 07:59:10;;;;;;;18.60;4.47;;;;;;;;;;5006535;28;20402;-72
2021/12/11 08:01:39;;;;;;;19.27;5.07;;;;;;;;;;4990007;28;20040;-73
2021/12/11 08:04:06;;;;;;;20.40;5.80;;;;;;;;;;4988178;28;20042;-72
2021/12/11 08:06:32;;;;;;;23.33;5.32;;;;;;;;;;5007180;28;20128;-72
2021/12/11 08:08:58;;;;;;;22.30;4.82;;;;;;;;;;5004747;28;20036;-72
2021/12/11 08:11:28;;;;;;;21.27;5.28;;;;;;;;;;4991851;28;20033;-72
2021/12/11 08:13:55;;;;;;;20.88;5.80;;;;;;;;;;5007555;28;20018;-72
2021/12/11 08:16:25;;;;;;;26.05;4.90;;;;;;;;;;5006503;28;20091;-72
2021/12/11 08:18:52;;;;;;;26.15;5.05;;;;;;;;;;4989204;28;20034;-73
2021/12/11 08:21:18;;;;;;;28.42;6.45;;;;;;;;;;5006801;28;20053;-72
2021/12/11 08:23:46;;;;;;;26.17;6.25;;;;;;;;;;5003457;28;20511;-73
2021/12/11 08:26:15;;;;;;;33.42;7.07;;;;;;;;;;5005568;28;20029;-72
2021/12/11 08:28:42;;;;;;;32.65;6.90;;;;;;;;;;4989847;28;20046;-72
2021/12/11 08:31:08;;;;;;;24.88;6.25;;;;;;;;;;5007094;28;20038;-73
2021/12/11 08:33:33;;;;;;;16.90;6.63;;;;;;;;;;4989699;28;20129;-72
2021/12/11 08:36:00;;;;;;;20.95;6.35;;;;;;;;;;5006100;28;20128;-73
2021/12/11 08:38:27;;;;;;;23.42;6.88;;;;;;;;;;5007618;28;20022;-72
2021/12/11 08:40:55;;;;;;;24.23;5.85;;;;;;;;;;5006316;28;20613;-72
2021/12/11 08:43:22;;;;;;;23.85;6.03;;;;;;;;;;5006158;28;20535;-72
2021/12/11 08:46:07;;;;;;;17.58;6.68;;;;;;;;;;5007445;28;20393;-72
2021/12/11 08:48:33;;;;;;;21.92;6.63;;;;;;;;;;5004956;28;20045;-72
2021/12/11 08:51:05;;;;;;;22.00;6.22;;;;;;;;;;5005282;28;20045;-73
2021/12/11 08:53:32;;;;;;;23.25;6.07;;;;;;;;;;5007439;28;20033;-73
2021/12/11 08:55:59;;;;;;;26.58;5.70;;;;;;;;;;5009837;28;20092;-72
2021/12/11 08:58:26;;;;;;;22.65;6.03;;;;;;;;;;4997780;28;20486;-72
2021/12/11 09:01:19;;;;;;;22.95;6.53;;;;;;;;;;4996926;28;20037;-72
2021/12/11 09:03:59;;;;;;;24.48;6.43;;;;;;;;;;4989661;28;20062;-72
2021/12/11 09:06:36;;;;;;;28.77;6.57;;;;;;;;;;5005518;28;20049;-72
2021/12/11 09:09:20;;;;;;;27.52;8.00;;;;;;;;;;5004061;28;20564;-72
2021/12/11 09:11:54;;;;;;;;;;;;;;;;;;5002410;28;20521;-72
2021/12/11 09:14:19;;;;;;;29.13;7.55;;;;;;;;;;5007087;28;19917;-72
2021/12/11 09:16:50;;;;;;;23.67;7.35;;;;;;;;;;5006698;28;20091;-72
2021/12/11 09:19:24;;;;;;;25.55;8.07;;;;;;;;;;5004951;28;20057;-72
2021/12/11 09:21:58;;;;;;;20.23;6.95;;;;;;;;;;5006308;28;20137;-72
2021/12/11 09:24:29;;;;;;;24.20;7.20;;;;;;;;;;5003801;28;20050;-72
2021/12/11 09:27:16;;;;;;;28.70;8.13;;;;;;;;;;5011026;28;20030;-72
2021/12/11 09:30:06;;;;;;;32.92;7.82;;;;;;;;;;5001367;28;20116;-72
2021/12/11 09:32:38;;;;;;;19.67;7.07;;;;;;;;;;5004882;28;20509;-72
2021/12/11 09:35:21;;;;;;;30.63;8.68;;;;;;;;;;5006654;28;20068;-72
2021/12/11 09:37:50;;;;;;;23.23;8.38;;;;;;;;;;5001683;28;20084;-72
2021/12/11 09:40:39;;;;;;;22.33;7.30;;;;;;;;;;5001857;28;20057;-72
2021/12/11 09:43:04;;;;;;;25.63;7.40;;;;;;;;;;4969225;28;20458;-72
2021/12/11 09:45:40;;;;;;;24.53;9.63;;;;;;;;;;5007124;28;20534;-72
2021/12/11 09:48:10;;;;;;;24.63;8.60;;;;;;;;;;5005552;28;20331;-72
2021/12/11 09:50:48;;;;;;;41.40;9.48;;;;;;;;;;5004648;28;20091;-72
2021/12/11 09:53:17;;;;;;;27.25;7.78;;;;;;;;;;5002897;28;20026;-72
2021/12/11 09:55:43;;;;;;;21.73;7.22;;;;;;;;;;5005605;28;20022;-72
2021/12/11 09:58:13;;;;;;;28.33;8.02;;;;;;;;;;4998486;28;20089;-72
2021/12/11 10:00:46;;;;;;;24.50;8.50;;;;;;;;;;5000908;28;20466;-72
2021/12/11 10:03:14;;;;;;;26.05;8.77;;;;;;;;;;5007220;28;20037;-72
2021/12/11 10:05:56;;;;;;;23.63;8.25;;;;;;;;;;4999678;28;20099;-72
2021/12/11 10:08:32;;;;;;;26.42;8.68;;;;;;;;;;5006638;28;20047;-72
2021/12/11 10:11:24;;;;;;;33.03;8.75;;;;;;;;;;5020277;28;20029;-72
2021/12/11 10:13:57;;;;;;;28.98;8.35;;;;;;;;;;5009759;28;20044;-72
2021/12/11 10:16:27;;;;;;;32.30;9.43;;;;;;;;;;5008853;28;20042;-72
2021/12/11 10:18:53;;;;;;;31.48;8.98;;;;;;;;;;5027004;28;20039;-72
2021/12/11 10:21:37;;;;;;;31.52;9.15;;;;;;;;;;5013250;28;20049;-72
2021/12/11 10:24:09;;;;;;;43.58;11.30;;;;;;;;;;5009255;28;20042;-72
2021/12/11 10:26:35;;;;;;;46.08;11.27;;;;;;;;;;5007698;28;20130;-72
2021/12/11 10:29:04;;;;;;;35.28;11.38;;;;;;;;;;5010554;28;20033;-72
2021/12/11 10:31:39;;;;;;;31.90;11.00;;;;;;;;;;5010073;28;20042;-72
2021/12/11 10:34:08;;;;;;;36.03;10.85;;;;;;;;;;5008358;28;20481;-72
2021/12/11 10:36:38;;;;;;;43.13;12.35;;;;;;;;;;5009144;28;20466;-72
2021/12/11 10:39:07;;;;;;;29.63;9.00;;;;;;;;;;5007952;28;20038;-72
2021/12/11 10:41:33;;;;;;;34.22;9.10;;;;;;;;;;5012293;28;20037;-72
2021/12/11 10:44:12;;;;;;;34.20;9.65;;;;;;;;;;5009580;28;20034;-72
2021/12/11 10:46:44;;;;;;;31.75;9.48;;;;;;;;;;5010290;28;20046;-72
2021/12/11 10:49:12;;;;;;;40.63;10.70;;;;;;;;;;5016348;28;20056;-72
2021/12/11 10:51:43;;;;;;;31.70;10.10;;;;;;;;;;5029485;28;20076;-72
2021/12/11 10:54:10;;;;;;;34.35;9.65;;;;;;;;;;5029450;28;20042;-72
2021/12/11 10:56:37;;;;;;;19.52;7.55;;;;;;;;;;5029721;28;20471;-72
2021/12/11 10:59:09;;;;;;;27.65;9.65;;;;;;;;;;5029703;28;20033;-72
2021/12/11 11:01:41;;;;;;;24.20;6.35;;;;;;;;;;5027697;28;20582;-72
2021/12/11 11:04:13;;;;;;;29.75;10.25;;;;;;;;;;5022518;28;20186;-72
2021/12/11 11:06:40;;;;;;;20.73;7.45;;;;;;;;;;5025340;28;20037;-72
2021/12/11 11:09:08;;;;;;;36.53;9.65;;;;;;;;;;5032832;28;20034;-72
2021/12/11 11:11:35;;;;;;;37.63;9.10;;;;;;;;;;5032043;28;20091;-72
2021/12/11 11:14:02;;;;;;;31.52;9.68;;;;;;;;;;5026904;28;20687;-72
2021/12/11 11:16:28;;;;;;;34.15;10.38;;;;;;;;;;5027843;28;20153;-72
2021/12/11 11:18:53;;;;;;;32.03;10.45;;;;;;;;;;5025644;28;20809;-72
2021/12/11 11:21:25;;;;;;;38.90;11.63;;;;;;;;;;5027621;28;20091;-72
2021/12/11 11:23:53;;;;;;;39.92;12.05;;;;;;;;;;5028984;28;20514;-72
2021/12/11 11:26:22;;;;;;;34.83;10.23;;;;;;;;;;5028466;28;20033;-72
2021/12/11 11:28:48;;;;;;;30.52;10.63;;;;;;;;;;5029525;28;20032;-72
2021/12/11 11:31:18;;;;;;;33.80;10.70;;;;;;;;;;5027292;28;20403;-72
2021/12/11 11:33:45;;;;;;;42.28;11.25;;;;;;;;;;5026851;28;20502;-72
2021/12/11 11:36:13;;;;;;;38.28;10.68;;;;;;;;;;5026906;28;20132;-72
2021/12/11 11:38:43;;;;;;;46.60;12.18;;;;;;;;;;5030318;28;20040;-72
2021/12/11 11:41:14;;;;;;;36.53;11.25;;;;;;;;;;5024990;28;20022;-70
2021/12/11 11:43:40;;;;;;;48.80;11.60;;;;;;;;;;5024451;28;20042;-73
2021/12/11 11:46:07;;;;;;;37.10;10.95;;;;;;;;;;5020677;28;20410;-73
2021/12/11 11:48:38;;;;;;;37.10;12.05;;;;;;;;;;5022697;28;20058;-71
2021/12/11 11:51:10;;;;;;;44.47;12.35;;;;;;;;;;5024909;28;20033;-71
2021/12/11 11:53:36;;;;;;;31.00;8.85;;;;;;;;;;5026850;28;20033;-71
2021/12/11 11:56:07;;;;;;;31.63;10.80;;;;;;;;;;5022720;28;20025;-71
2021/12/11 11:58:34;;;;;;;37.83;11.32;;;;;;;;;;5007142;28;21301;-71
2021/12/11 12:01:08;;;;;;;36.25;11.40;;;;;;;;;;5020393;28;20025;-71
2021/12/11 12:03:34;;;;;;;40.70;11.52;;;;;;;;;;5025703;28;20033;-71
2021/12/11 12:06:04;;;;;;;38.45;10.82;;;;;;;;;;5027264;28;20518;-71
2021/12/11 12:08:30;;;;;;;40.65;10.27;;;;;;;;;;5021001;28;20021;-70
2021/12/11 12:10:57;;;;;;;48.45;11.27;;;;;;;;;;5026885;28;20025;-70
2021/12/11 12:13:26;;;;;;;34.40;9.45;;;;;;;;;;5023385;28;20037;-71
2021/12/11 12:15:56;;;;;;;31.42;9.45;;;;;;;;;;5026218;28;20519;-71
2021/12/11 12:18:24;;;;;;;29.95;9.68;;;;;;;;;;5024056;28;20037;-71
2021/12/11 12:20:50;;;;;;;31.92;10.05;;;;;;;;;;5020243;28;20794;-70
2021/12/11 12:23:18;;;;;;;27.10;8.80;;;;;;;;;;5026408;28;20029;-71
2021/12/11 12:25:45;;;;;;;25.08;7.20;;;;;;;;;;5025422;28;20108;-71
2021/12/11 12:28:11;;;;;;;19.95;6.88;;;;;;;;;;5024591;28;20043;-71
2021/12/11 12:30:42;;;;;;;21.67;6.90;;;;;;;;;;5023815;28;20033;-71
2021/12/11 12:33:09;;;;;;;29.08;6.88;;;;;;;;;;5020535;28;20076;-71
2021/12/11 12:35:35;;;;;;;22.85;7.03;;;;;;;;;;5024026;28;20095;-71
2021/12/11 12:38:04;;;;;;;25.02;6.95;;;;;;;;;;5025809;28;20033;-71
2021/12/11 12:40:40;;;;;;;18.20;6.90;;;;;;;;;;5024008;28;20045;-70
2021/12/11 12:43:20;;;;;;;18.85;6.85;;;;;;;;;;5026248;28;20030;-71
2021/12/11 12:45:51;;;;;;;18.92;6.85;;;;;;;;;;5022660;28;20037;-71
2021/12/11 12:48:22;;;;;;;20.85;7.13;;;;;;;;;;5024725;28;20099;-71
2021/12/11 12:50:53;;;;;;;19.30;6.15;;;;;;;;;;5021672;28;20026;-71
2021/12/11 12:53:20;;;;;;;19.13;6.78;;;;;;;;;;5027061;28;20036;-70
2021/12/11 12:55:56;;;;;;;19.70;6.50;;;;;;;;;;5027659;28;20025;-70
2021/12/11 12:58:29;;;;;;;21.25;6.82;;;;;;;;;;5024046;28;20037;-71
2021/12/11 13:01:00;;;;;;;20.65;6.25;;;;;;;;;;5028216;28;20037;-71
2021/12/11 13:03:28;;;;;;;23.70;7.88;;;;;;;;;;5026560;28;20072;-71
2021/12/11 13:06:03;;;;;;;17.90;7.13;;;;;;;;;;5025846;28;20041;-71
2021/12/11 13:08:47;;;;;;;28.50;7.30;;;;;;;;;;5022972;28;20029;-71
2021/12/11 13:11:32;;;;;;;;;;;;;;;;;;5002525;28;21425;-71
2021/12/11 13:13:59;;;;;;;21.70;6.03;;;;;;;;;;5015261;28;19967;-70
2021/12/11 13:16:28;;;;;;;17.35;6.13;;;;;;;;;;5026695;28;20595;-70
2021/12/11 13:18:59;;;;;;;17.50;6.28;;;;;;;;;;5021279;28;20045;-70
2021/12/11 13:21:30;;;;;;;18.30;6.47;;;;;;;;;;5026597;28;20102;-70
2021/12/11 13:23:59;;;;;;;20.85;7.40;;;;;;;;;;5027180;28;20452;-70
2021/12/11 13:26:27;;;;;;;21.55;5.43;;;;;;;;;;5025629;28;20025;-70
2021/12/11 13:28:56;;;;;;;20.42;6.20;;;;;;;;;;5028159;28;20118;-70
2021/12/11 13:31:29;;;;;;;13.63;4.60;;;;;;;;;;5026297;28;20619;-70
2021/12/11 13:33:55;;;;;;;16.52;5.43;;;;;;;;;;5018533;28;20116;-71
2021/12/11 13:36:21;;;;;;;14.88;5.38;;;;;;;;;;5019382;28;20037;-71
2021/12/11 13:38:47;;;;;;;10.18;4.45;;;;;;;;;;5024115;28;20037;-71
2021/12/11 13:41:23;;;;;;;12.90;4.60;;;;;;;;;;5002565;28;20021;-71
2021/12/11 13:43:48;;;;;;;11.85;5.03;;;;;;;;;;5029127;28;20132;-71
2021/12/11 13:46:15;;;;;;;14.40;5.72;;;;;;;;;;5023880;28;20116;-71
2021/12/11 13:48:41;;;;;;;15.85;4.70;;;;;;;;;;5031180;28;20466;-71
2021/12/11 13:51:12;;;;;;;12.77;5.05;;;;;;;;;;4999278;28;20076;-71
2021/12/11 13:53:39;;;;;;;12.52;4.03;;;;;;;;;;5029811;28;20030;-71
2021/12/11 13:56:11;;;;;;;13.75;4.10;;;;;;;;;;5031392;28;20034;-71
2021/12/11 13:58:36;;;;;;;12.48;4.57;;;;;;;;;;5012111;28;20052;-71
2021/12/11 14:01:12;;;;;;;18.48;4.95;;;;;;;;;;5028053;28;20100;-71
2021/12/11 14:03:38;;;;;;;10.40;5.18;;;;;;;;;;5017576;28;20045;-71
2021/12/11 14:06:07;;;;;;;14.68;4.43;;;;;;;;;;5024636;28;20507;-71
2021/12/11 14:08:34;;;;;;;16.42;4.30;;;;;;;;;;5018339;28;20442;-71
2021/12/11 14:11:02;;;;;;;18.15;4.18;;;;;;;;;;5010922;28;20022;-71
2021/12/11 14:13:27;;;;;;;12.48;4.45;;;;;;;;;;5026554;28;20033;-71
2021/12/11 14:15:55;;;;;;;16.60;3.90;;;;;;;;;;5027193;28;20042;-71
2021/12/11 14:18:22;;;;;;;15.27;4.32;;;;;;;;;;5028241;28;20029;-71
2021/12/11 14:20:48;;;;;;;13.13;4.32;;;;;;;;;;5027659;28;20041;-71
2021/12/11 14:23:18;;;;;;;12.93;4.68;;;;;;;;;;5026437;28;20172;-71
2021/12/11 14:25:45;;;;;;;20.65;4.53;;;;;;;;;;5012824;28;20034;-71
2021/12/11 14:28:13;;;;;;;16.25;4.65;;;;;;;;;;5028018;28;20091;-71
2021/12/11 14:30:42;;;;;;;8.32;4.20;;;;;;;;;;5025758;28;20407;-71
2021/12/11 14:33:07;;;;;;;15.10;4.05;;;;;;;;;;5024140;28;20046;-71
2021/12/11 14:35:36;;;;;;;12.80;4.28;;;;;;;;;;5029366;28;20091;-71
2021/12/11 14:38:06;;;;;;;12.65;4.07;;;;;;;;;;5030217;28;20037;-72
2021/12/11 14:40:34;;;;;;;10.93;4.20;;;;;;;;;;5028828;28;20418;-70
2021/12/11 14:43:00;;;;;;;18.98;4.32;;;;;;;;;;5025097;28;20549;-71
2021/12/11 14:45:30;;;;;;;7.72;3.05;;;;;;;;;;5027173;28;20569;-72
2021/12/11 14:47:55;;;;;;;11.23;3.50;;;;;;;;;;5029141;28;20519;-72
2021/12/11 14:50:26;;;;;;;13.75;4.10;;;;;;;;;;5027588;28;20112;-72
2021/12/11 14:52:52;;;;;;;12.77;3.38;;;;;;;;;;5029782;28;20029;-72
2021/12/11 14:55:28;;;;;;;10.73;3.67;;;;;;;;;;5011400;28;20130;-71
2021/12/11 14:57:54;;;;;;;10.95;3.72;;;;;;;;;;5029051;28;20056;-71
2021/12/11 15:00:23;;;;;;;14.20;4.30;;;;;;;;;;5034578;28;20208;-71
2021/12/11 15:02:51;;;;;;;13.73;4.43;;;;;;;;;;5028396;28;20136;-72
2021/12/11 15:05:22;;;;;;;13.98;4.38;;;;;;;;;;5028077;28;20025;-72